sensor_id;sensor_type;location;lat;lon;timestamp;P1;durP1;ratioP1;P2;durP2;ratioP2
67363;SDS011;54250;45.572;38.086;2023-04-24T00:00:21;4.85;;;2.50;;
67363;SDS011;54250;45.572;38.086;2023-04-24T00:02:47;4.50;;;2.55;;
67363;SDS011;54250;45.572;38.086;2023-04-24T00:05:14;3.58;;;2.47;;
67363;SDS011;54250;45.572;38.086;2023-04-24T00:07:41;3.97;;;2.15;;
67363;SDS011;54250;45.572;38.086;2023-04-24T00:10:07;3.72;;;2.70;;
67363;SDS011;54250;45.572;38.086;2023-04-24T00:12:34;9.93;;;2.65;;
67363;SDS011;54250;45.572;38.086;2023-04-24T00:15:00;4.57;;;2.35;;
67363;SDS011;54250;45.572;38.086;2023-04-24T00:17:27;4.50;;;2.70;;
67363;SDS011;54250;45.572;38.086;2023-04-24T00:19:53;4.43;;;2.03;;
67363;SDS011;54250;45.572;38.086;2023-04-24T00:22:24;4.28;;;2.30;;
67363;SDS011;54250;45.572;38.086;2023-04-24T00:24:51;4.93;;;2.08;;
67363;SDS011;54250;45.572;38.086;2023-04-24T00:27:17;5.45;;;2.50;;
67363;SDS011;54250;45.572;38.086;2023-04-24T00:29:43;6.40;;;2.13;;
67363;SDS011;54250;45.572;38.086;2023-04-24T00:32:09;5.07;;;2.45;;
67363;SDS011;54250;45.572;38.086;2023-04-24T00:34:35;5.75;;;2.72;;
67363;SDS011;54250;45.572;38.086;2023-04-24T00:37:01;3.20;;;1.90;;
67363;SDS011;54250;45.572;38.086;2023-04-24T00:39:27;3.58;;;2.05;;
67363;SDS011;54250;45.572;38.086;2023-04-24T00:41:53;4.13;;;2.38;;
67363;SDS011;54250;45.572;38.086;2023-04-24T00:44:20;8.10;;;1.85;;
67363;SDS011;54250;45.572;38.086;2023-04-24T00:46:46;2.05;;;1.58;;
67363;SDS011;54250;45.572;38.086;2023-04-24T00:49:20;6.88;;;1.38;;
67363;SDS011;54250;45.572;38.086;2023-04-24T00:51:47;10.38;;;2.05;;
67363;SDS011;54250;45.572;38.086;2023-04-24T00:54:15;3.22;;;2.22;;
67363;SDS011;54250;45.572;38.086;2023-04-24T00:56:42;4.40;;;2.10;;
67363;SDS011;54250;45.572;38.086;2023-04-24T00:59:09;4.70;;;2.22;;
67363;SDS011;54250;45.572;38.086;2023-04-24T01:01:35;3.97;;;2.00;;
67363;SDS011;54250;45.572;38.086;2023-04-24T01:04:02;2.40;;;1.90;;
67363;SDS011;54250;45.572;38.086;2023-04-24T01:06:29;1.70;;;1.35;;
67363;SDS011;54250;45.572;38.086;2023-04-24T01:08:58;3.13;;;2.38;;
67363;SDS011;54250;45.572;38.086;2023-04-24T01:11:25;4.55;;;2.03;;
67363;SDS011;54250;45.572;38.086;2023-04-24T01:13:51;1.27;;;1.17;;
67363;SDS011;54250;45.572;38.086;2023-04-24T01:16:18;5.25;;;2.03;;
67363;SDS011;54250;45.572;38.086;2023-04-24T01:18:47;3.50;;;2.25;;
67363;SDS011;54250;45.572;38.086;2023-04-24T01:21:14;6.68;;;1.90;;
67363;SDS011;54250;45.572;38.086;2023-04-24T01:23:44;7.00;;;1.92;;
67363;SDS011;54250;45.572;38.086;2023-04-24T01:26:11;2.13;;;1.52;;
67363;SDS011;54250;45.572;38.086;2023-04-24T01:28:38;4.13;;;2.28;;
67363;SDS011;54250;45.572;38.086;2023-04-24T01:31:04;2.00;;;1.83;;
67363;SDS011;54250;45.572;38.086;2023-04-24T01:33:31;4.95;;;2.15;;
67363;SDS011;54250;45.572;38.086;2023-04-24T01:35:57;2.33;;;1.83;;
67363;SDS011;54250;45.572;38.086;2023-04-24T01:38:23;3.92;;;2.22;;
67363;SDS011;54250;45.572;38.086;2023-04-24T01:40:49;2.95;;;1.85;;
67363;SDS011;54250;45.572;38.086;2023-04-24T01:43:17;1.88;;;1.25;;
67363;SDS011;54250;45.572;38.086;2023-04-24T01:45:43;6.72;;;1.48;;
67363;SDS011;54250;45.572;38.086;2023-04-24T01:48:10;1.60;;;1.30;;
67363;SDS011;54250;45.572;38.086;2023-04-24T01:50:37;1.90;;;1.73;;
67363;SDS011;54250;45.572;38.086;2023-04-24T01:53:03;3.90;;;1.45;;
67363;SDS011;54250;45.572;38.086;2023-04-24T01:55:30;2.20;;;1.42;;
67363;SDS011;54250;45.572;38.086;2023-04-24T01:57:56;2.67;;;1.48;;
67363;SDS011;54250;45.572;38.086;2023-04-24T02:00:23;1.67;;;1.10;;
67363;SDS011;54250;45.572;38.086;2023-04-24T02:02:51;7.25;;;1.90;;
67363;SDS011;54250;45.572;38.086;2023-04-24T02:05:17;1.33;;;0.80;;
67363;SDS011;54250;45.572;38.086;2023-04-24T02:07:43;1.75;;;1.15;;
67363;SDS011;54250;45.572;38.086;2023-04-24T02:10:10;2.58;;;1.15;;
67363;SDS011;54250;45.572;38.086;2023-04-24T02:12:41;7.63;;;2.05;;
67363;SDS011;54250;45.572;38.086;2023-04-24T02:15:07;1.30;;;1.20;;
67363;SDS011;54250;45.572;38.086;2023-04-24T02:17:36;4.43;;;1.90;;
67363;SDS011;54250;45.572;38.086;2023-04-24T02:20:03;1.73;;;1.40;;
67363;SDS011;54250;45.572;38.086;2023-04-24T02:22:30;1.35;;;1.23;;
67363;SDS011;54250;45.572;38.086;2023-04-24T02:25:00;2.72;;;1.45;;
67363;SDS011;54250;45.572;38.086;2023-04-24T02:27:26;6.28;;;1.50;;
67363;SDS011;54250;45.572;38.086;2023-04-24T02:29:52;5.13;;;1.52;;
67363;SDS011;54250;45.572;38.086;2023-04-24T02:32:18;8.50;;;1.02;;
67363;SDS011;54250;45.572;38.086;2023-04-24T02:34:45;5.70;;;1.63;;
67363;SDS011;54250;45.572;38.086;2023-04-24T02:37:11;3.88;;;1.80;;
67363;SDS011;54250;45.572;38.086;2023-04-24T02:39:38;4.43;;;1.70;;
67363;SDS011;54250;45.572;38.086;2023-04-24T02:42:04;6.32;;;1.83;;
67363;SDS011;54250;45.572;38.086;2023-04-24T02:44:30;3.30;;;1.42;;
67363;SDS011;54250;45.572;38.086;2023-04-24T02:46:56;0.90;;;0.63;;
67363;SDS011;54250;45.572;38.086;2023-04-24T02:49:22;2.20;;;1.50;;
67363;SDS011;54250;45.572;38.086;2023-04-24T02:51:48;1.65;;;1.10;;
67363;SDS011;54250;45.572;38.086;2023-04-24T02:54:15;9.90;;;2.08;;
67363;SDS011;54250;45.572;38.086;2023-04-24T02:56:41;3.42;;;2.65;;
67363;SDS011;54250;45.572;38.086;2023-04-24T02:59:08;10.30;;;1.33;;
67363;SDS011;54250;45.572;38.086;2023-04-24T03:01:34;2.45;;;1.40;;
67363;SDS011;54250;45.572;38.086;2023-04-24T03:04:00;2.65;;;1.77;;
67363;SDS011;54250;45.572;38.086;2023-04-24T03:06:27;2.70;;;1.70;;
67363;SDS011;54250;45.572;38.086;2023-04-24T03:08:53;2.08;;;1.45;;
67363;SDS011;54250;45.572;38.086;2023-04-24T03:11:20;8.27;;;1.85;;
67363;SDS011;54250;45.572;38.086;2023-04-24T03:13:46;4.28;;;1.80;;
67363;SDS011;54250;45.572;38.086;2023-04-24T03:16:12;1.52;;;1.27;;
67363;SDS011;54250;45.572;38.086;2023-04-24T03:18:38;10.23;;;1.63;;
67363;SDS011;54250;45.572;38.086;2023-04-24T03:21:06;7.03;;;1.50;;
67363;SDS011;54250;45.572;38.086;2023-04-24T03:23:35;1.67;;;1.10;;
67363;SDS011;54250;45.572;38.086;2023-04-24T03:26:01;1.45;;;1.23;;
67363;SDS011;54250;45.572;38.086;2023-04-24T03:28:28;5.45;;;1.35;;
67363;SDS011;54250;45.572;38.086;2023-04-24T03:30:58;2.55;;;1.23;;
67363;SDS011;54250;45.572;38.086;2023-04-24T03:33:29;2.00;;;1.33;;
67363;SDS011;54250;45.572;38.086;2023-04-24T03:36:00;1.50;;;1.17;;
67363;SDS011;54250;45.572;38.086;2023-04-24T03:38:32;1.77;;;1.10;;
67363;SDS011;54250;45.572;38.086;2023-04-24T03:41:04;2.03;;;1.00;;
67363;SDS011;54250;45.572;38.086;2023-04-24T03:43:45;1.42;;;1.10;;
67363;SDS011;54250;45.572;38.086;2023-04-24T03:46:11;1.90;;;1.30;;
67363;SDS011;54250;45.572;38.086;2023-04-24T03:48:41;5.00;;;1.10;;
67363;SDS011;54250;45.572;38.086;2023-04-24T03:51:08;6.05;;;1.98;;
67363;SDS011;54250;45.572;38.086;2023-04-24T03:53:37;5.55;;;1.48;;
67363;SDS011;54250;45.572;38.086;2023-04-24T03:56:03;2.15;;;1.08;;
67363;SDS011;54250;45.572;38.086;2023-04-24T03:58:31;1.88;;;1.17;;
67363;SDS011;54250;45.572;38.086;2023-04-24T04:00:57;3.47;;;1.20;;
67363;SDS011;54250;45.572;38.086;2023-04-24T04:03:43;1.73;;;1.35;;
67363;SDS011;54250;45.572;38.086;2023-04-24T04:06:09;5.25;;;1.20;;
67363;SDS011;54250;45.572;38.086;2023-04-24T04:08:37;2.25;;;1.10;;
67363;SDS011;54250;45.572;38.086;2023-04-24T04:11:03;2.63;;;1.35;;
67363;SDS011;54250;45.572;38.086;2023-04-24T04:13:30;2.80;;;0.82;;
67363;SDS011;54250;45.572;38.086;2023-04-24T04:15:56;4.30;;;1.00;;
67363;SDS011;54250;45.572;38.086;2023-04-24T04:18:23;2.00;;;1.08;;
67363;SDS011;54250;45.572;38.086;2023-04-24T04:20:49;1.55;;;0.88;;
67363;SDS011;54250;45.572;38.086;2023-04-24T04:23:16;1.50;;;0.95;;
67363;SDS011;54250;45.572;38.086;2023-04-24T04:26:00;1.67;;;0.85;;
67363;SDS011;54250;45.572;38.086;2023-04-24T04:28:37;6.65;;;0.93;;
67363;SDS011;54250;45.572;38.086;2023-04-24T04:31:05;2.80;;;0.77;;
67363;SDS011;54250;45.572;38.086;2023-04-24T04:33:33;5.93;;;1.00;;
67363;SDS011;54250;45.572;38.086;2023-04-24T04:36:01;1.50;;;0.85;;
67363;SDS011;54250;45.572;38.086;2023-04-24T04:38:30;1.40;;;0.90;;
67363;SDS011;54250;45.572;38.086;2023-04-24T04:41:07;1.92;;;0.80;;
67363;SDS011;54250;45.572;38.086;2023-04-24T04:43:33;1.77;;;0.88;;
67363;SDS011;54250;45.572;38.086;2023-04-24T04:45:59;1.05;;;0.68;;
67363;SDS011;54250;45.572;38.086;2023-04-24T04:48:58;0.85;;;0.75;;
67363;SDS011;54250;45.572;38.086;2023-04-24T04:51:25;2.03;;;0.90;;
67363;SDS011;54250;45.572;38.086;2023-04-24T04:53:51;1.55;;;0.93;;
67363;SDS011;54250;45.572;38.086;2023-04-24T04:56:17;0.60;;;0.60;;
67363;SDS011;54250;45.572;38.086;2023-04-24T04:58:45;2.47;;;1.00;;
67363;SDS011;54250;45.572;38.086;2023-04-24T05:01:14;0.88;;;0.68;;
67363;SDS011;54250;45.572;38.086;2023-04-24T05:03:44;0.90;;;0.70;;
67363;SDS011;54250;45.572;38.086;2023-04-24T05:06:13;0.90;;;0.63;;
67363;SDS011;54250;45.572;38.086;2023-04-24T05:08:41;1.80;;;0.80;;
67363;SDS011;54250;45.572;38.086;2023-04-24T05:11:11;1.73;;;0.82;;
67363;SDS011;54250;45.572;38.086;2023-04-24T05:13:38;1.40;;;0.70;;
67363;SDS011;54250;45.572;38.086;2023-04-24T05:16:08;3.90;;;1.00;;
67363;SDS011;54250;45.572;38.086;2023-04-24T05:18:35;2.35;;;0.80;;
67363;SDS011;54250;45.572;38.086;2023-04-24T05:21:01;0.60;;;0.60;;
67363;SDS011;54250;45.572;38.086;2023-04-24T05:23:27;1.60;;;0.85;;
67363;SDS011;54250;45.572;38.086;2023-04-24T05:25:55;1.50;;;0.80;;
67363;SDS011;54250;45.572;38.086;2023-04-24T05:28:21;1.30;;;1.15;;
67363;SDS011;54250;45.572;38.086;2023-04-24T05:31:00;1.00;;;0.63;;
67363;SDS011;54250;45.572;38.086;2023-04-24T05:33:26;1.05;;;0.65;;
67363;SDS011;54250;45.572;38.086;2023-04-24T05:35:52;3.08;;;0.75;;
67363;SDS011;54250;45.572;38.086;2023-04-24T05:38:20;1.67;;;0.40;;
67363;SDS011;54250;45.572;38.086;2023-04-24T05:40:46;5.93;;;0.90;;
67363;SDS011;54250;45.572;38.086;2023-04-24T05:43:12;1.05;;;0.75;;
67363;SDS011;54250;45.572;38.086;2023-04-24T05:45:38;0.30;;;0.30;;
67363;SDS011;54250;45.572;38.086;2023-04-24T05:48:05;1.35;;;0.40;;
67363;SDS011;54250;45.572;38.086;2023-04-24T05:50:32;1.30;;;0.50;;
67363;SDS011;54250;45.572;38.086;2023-04-24T05:52:58;7.55;;;0.80;;
67363;SDS011;54250;45.572;38.086;2023-04-24T05:55:29;0.70;;;0.60;;
67363;SDS011;54250;45.572;38.086;2023-04-24T05:57:56;2.85;;;0.90;;
67363;SDS011;54250;45.572;38.086;2023-04-24T06:00:24;1.08;;;0.63;;
67363;SDS011;54250;45.572;38.086;2023-04-24T06:02:59;0.60;;;0.45;;
67363;SDS011;54250;45.572;38.086;2023-04-24T06:05:26;0.45;;;0.45;;
67363;SDS011;54250;45.572;38.086;2023-04-24T06:07:52;2.05;;;0.50;;
67363;SDS011;54250;45.572;38.086;2023-04-24T06:10:21;0.60;;;0.60;;
67363;SDS011;54250;45.572;38.086;2023-04-24T06:12:49;0.75;;;0.70;;
67363;SDS011;54250;45.572;38.086;2023-04-24T06:15:16;0.57;;;0.50;;
67363;SDS011;54250;45.572;38.086;2023-04-24T06:17:57;2.15;;;0.50;;
67363;SDS011;54250;45.572;38.086;2023-04-24T06:20:24;1.05;;;0.65;;
67363;SDS011;54250;45.572;38.086;2023-04-24T06:22:51;3.40;;;0.57;;
67363;SDS011;54250;45.572;38.086;2023-04-24T06:25:17;0.43;;;0.43;;
67363;SDS011;54250;45.572;38.086;2023-04-24T06:27:44;0.50;;;0.50;;
67363;SDS011;54250;45.572;38.086;2023-04-24T06:30:10;2.53;;;0.77;;
67363;SDS011;54250;45.572;38.086;2023-04-24T06:32:42;2.08;;;1.13;;
67363;SDS011;54250;45.572;38.086;2023-04-24T06:35:08;3.15;;;1.20;;
67363;SDS011;54250;45.572;38.086;2023-04-24T06:37:35;1.90;;;0.90;;
67363;SDS011;54250;45.572;38.086;2023-04-24T06:40:01;1.85;;;0.80;;
67363;SDS011;54250;45.572;38.086;2023-04-24T06:42:28;1.85;;;0.90;;
67363;SDS011;54250;45.572;38.086;2023-04-24T06:44:54;1.20;;;0.90;;
67363;SDS011;54250;45.572;38.086;2023-04-24T06:47:20;1.00;;;0.55;;
67363;SDS011;54250;45.572;38.086;2023-04-24T06:49:47;4.22;;;0.90;;
67363;SDS011;54250;45.572;38.086;2023-04-24T06:52:13;1.35;;;0.73;;
67363;SDS011;54250;45.572;38.086;2023-04-24T06:54:41;1.60;;;0.80;;
67363;SDS011;54250;45.572;38.086;2023-04-24T06:57:08;1.23;;;0.93;;
67363;SDS011;54250;45.572;38.086;2023-04-24T06:59:34;3.33;;;1.13;;
67363;SDS011;54250;45.572;38.086;2023-04-24T07:02:00;3.55;;;1.23;;
67363;SDS011;54250;45.572;38.086;2023-04-24T07:04:26;2.17;;;1.00;;
67363;SDS011;54250;45.572;38.086;2023-04-24T07:06:53;1.25;;;1.02;;
67363;SDS011;54250;45.572;38.086;2023-04-24T07:09:23;3.17;;;1.30;;
67363;SDS011;54250;45.572;38.086;2023-04-24T07:11:51;2.17;;;1.23;;
67363;SDS011;54250;45.572;38.086;2023-04-24T07:14:18;2.33;;;1.40;;
67363;SDS011;54250;45.572;38.086;2023-04-24T07:16:44;6.53;;;0.70;;
67363;SDS011;54250;45.572;38.086;2023-04-24T07:19:11;7.85;;;1.35;;
67363;SDS011;54250;45.572;38.086;2023-04-24T07:21:38;2.38;;;1.05;;
67363;SDS011;54250;45.572;38.086;2023-04-24T07:24:04;2.13;;;1.20;;
67363;SDS011;54250;45.572;38.086;2023-04-24T07:26:34;1.55;;;1.15;;
67363;SDS011;54250;45.572;38.086;2023-04-24T07:29:00;3.85;;;1.50;;
67363;SDS011;54250;45.572;38.086;2023-04-24T07:31:26;3.10;;;1.13;;
67363;SDS011;54250;45.572;38.086;2023-04-24T07:33:52;4.60;;;0.82;;
67363;SDS011;54250;45.572;38.086;2023-04-24T07:36:18;3.95;;;1.10;;
67363;SDS011;54250;45.572;38.086;2023-04-24T07:38:47;1.80;;;1.00;;
67363;SDS011;54250;45.572;38.086;2023-04-24T07:41:14;1.20;;;1.00;;
67363;SDS011;54250;45.572;38.086;2023-04-24T07:43:40;2.00;;;0.90;;
67363;SDS011;54250;45.572;38.086;2023-04-24T07:46:07;1.98;;;1.05;;
67363;SDS011;54250;45.572;38.086;2023-04-24T07:48:35;2.55;;;1.00;;
67363;SDS011;54250;45.572;38.086;2023-04-24T07:51:01;1.77;;;1.08;;
67363;SDS011;54250;45.572;38.086;2023-04-24T07:53:27;1.35;;;0.52;;
67363;SDS011;54250;45.572;38.086;2023-04-24T07:55:54;2.28;;;1.15;;
67363;SDS011;54250;45.572;38.086;2023-04-24T07:58:21;1.30;;;0.80;;
67363;SDS011;54250;45.572;38.086;2023-04-24T08:00:47;2.10;;;1.02;;
67363;SDS011;54250;45.572;38.086;2023-04-24T08:03:13;2.90;;;1.20;;
67363;SDS011;54250;45.572;38.086;2023-04-24T08:05:40;3.10;;;1.15;;
67363;SDS011;54250;45.572;38.086;2023-04-24T08:08:08;1.00;;;0.70;;
67363;SDS011;54250;45.572;38.086;2023-04-24T08:10:34;4.57;;;1.30;;
67363;SDS011;54250;45.572;38.086;2023-04-24T08:13:00;1.90;;;1.10;;
67363;SDS011;54250;45.572;38.086;2023-04-24T08:15:27;2.15;;;1.08;;
67363;SDS011;54250;45.572;38.086;2023-04-24T08:17:53;2.90;;;0.93;;
67363;SDS011;54250;45.572;38.086;2023-04-24T08:20:19;0.90;;;0.80;;
67363;SDS011;54250;45.572;38.086;2023-04-24T08:22:45;1.23;;;1.00;;
67363;SDS011;54250;45.572;38.086;2023-04-24T08:25:12;3.40;;;1.10;;
67363;SDS011;54250;45.572;38.086;2023-04-24T08:27:39;3.25;;;1.17;;
67363;SDS011;54250;45.572;38.086;2023-04-24T08:30:05;2.40;;;1.00;;
67363;SDS011;54250;45.572;38.086;2023-04-24T08:32:32;2.97;;;0.90;;
67363;SDS011;54250;45.572;38.086;2023-04-24T08:34:58;4.50;;;1.00;;
67363;SDS011;54250;45.572;38.086;2023-04-24T08:37:26;5.47;;;1.08;;
67363;SDS011;54250;45.572;38.086;2023-04-24T08:39:52;4.18;;;1.10;;
67363;SDS011;54250;45.572;38.086;2023-04-24T08:42:19;4.20;;;1.27;;
67363;SDS011;54250;45.572;38.086;2023-04-24T08:44:47;1.98;;;1.02;;
67363;SDS011;54250;45.572;38.086;2023-04-24T08:47:15;3.00;;;0.95;;
67363;SDS011;54250;45.572;38.086;2023-04-24T08:49:41;3.28;;;1.20;;
67363;SDS011;54250;45.572;38.086;2023-04-24T08:52:08;7.03;;;0.93;;
67363;SDS011;54250;45.572;38.086;2023-04-24T08:54:35;4.57;;;1.38;;
67363;SDS011;54250;45.572;38.086;2023-04-24T08:57:02;4.25;;;1.20;;
67363;SDS011;54250;45.572;38.086;2023-04-24T08:59:29;1.05;;;0.90;;
67363;SDS011;54250;45.572;38.086;2023-04-24T09:01:56;2.72;;;1.30;;
67363;SDS011;54250;45.572;38.086;2023-04-24T09:04:23;1.88;;;0.90;;
67363;SDS011;54250;45.572;38.086;2023-04-24T09:06:51;1.08;;;0.98;;
67363;SDS011;54250;45.572;38.086;2023-04-24T09:09:20;3.70;;;1.02;;
67363;SDS011;54250;45.572;38.086;2023-04-24T09:11:49;4.05;;;1.38;;
67363;SDS011;54250;45.572;38.086;2023-04-24T09:14:16;1.30;;;0.85;;
67363;SDS011;54250;45.572;38.086;2023-04-24T09:16:43;1.42;;;0.88;;
67363;SDS011;54250;45.572;38.086;2023-04-24T09:19:09;5.32;;;1.23;;
67363;SDS011;54250;45.572;38.086;2023-04-24T09:21:35;2.20;;;1.23;;
67363;SDS011;54250;45.572;38.086;2023-04-24T09:24:05;2.28;;;1.25;;
67363;SDS011;54250;45.572;38.086;2023-04-24T09:26:34;6.22;;;1.23;;
67363;SDS011;54250;45.572;38.086;2023-04-24T09:29:02;5.93;;;0.90;;
67363;SDS011;54250;45.572;38.086;2023-04-24T09:31:29;5.72;;;1.10;;
67363;SDS011;54250;45.572;38.086;2023-04-24T09:36:28;2.03;;;0.80;;
67363;SDS011;54250;45.572;38.086;2023-04-24T09:39:05;5.45;;;0.95;;
67363;SDS011;54250;45.572;38.086;2023-04-24T09:41:33;1.77;;;1.30;;
67363;SDS011;54250;45.572;38.086;2023-04-24T09:46:38;6.10;;;0.90;;
67363;SDS011;54250;45.572;38.086;2023-04-24T09:49:13;1.88;;;0.90;;
67363;SDS011;54250;45.572;38.086;2023-04-24T09:51:41;7.65;;;1.92;;
67363;SDS011;54250;45.572;38.086;2023-04-24T09:54:14;3.42;;;1.60;;
67363;SDS011;54250;45.572;38.086;2023-04-24T09:56:42;3.35;;;1.80;;
67363;SDS011;54250;45.572;38.086;2023-04-24T09:59:10;3.47;;;1.10;;
67363;SDS011;54250;45.572;38.086;2023-04-24T10:01:37;3.30;;;2.20;;
67363;SDS011;54250;45.572;38.086;2023-04-24T10:04:08;3.58;;;2.38;;
67363;SDS011;54250;45.572;38.086;2023-04-24T10:06:48;46.15;;;13.82;;
67363;SDS011;54250;45.572;38.086;2023-04-24T10:09:15;16.27;;;5.00;;
67363;SDS011;54250;45.572;38.086;2023-04-24T10:11:46;10.52;;;4.05;;
67363;SDS011;54250;45.572;38.086;2023-04-24T10:14:20;8.68;;;2.25;;
67363;SDS011;54250;45.572;38.086;2023-04-24T10:16:48;3.22;;;1.45;;
67363;SDS011;54250;45.572;38.086;2023-04-24T10:19:15;7.35;;;1.42;;
67363;SDS011;54250;45.572;38.086;2023-04-24T10:21:44;7.10;;;1.45;;
67363;SDS011;54250;45.572;38.086;2023-04-24T10:24:14;2.15;;;1.50;;
67363;SDS011;54250;45.572;38.086;2023-04-24T10:26:45;3.60;;;1.60;;
67363;SDS011;54250;45.572;38.086;2023-04-24T10:29:14;1.63;;;1.27;;
67363;SDS011;54250;45.572;38.086;2023-04-24T10:31:42;3.40;;;1.67;;
67363;SDS011;54250;45.572;38.086;2023-04-24T10:34:10;6.80;;;2.03;;
67363;SDS011;54250;45.572;38.086;2023-04-24T10:36:38;4.68;;;1.67;;
67363;SDS011;54250;45.572;38.086;2023-04-24T10:39:08;2.05;;;1.45;;
67363;SDS011;54250;45.572;38.086;2023-04-24T10:41:38;5.85;;;3.10;;
67363;SDS011;54250;45.572;38.086;2023-04-24T10:46:35;5.30;;;2.40;;
67363;SDS011;54250;45.572;38.086;2023-04-24T10:49:05;3.63;;;1.40;;
67363;SDS011;54250;45.572;38.086;2023-04-24T10:54:35;4.82;;;1.73;;
67363;SDS011;54250;45.572;38.086;2023-04-24T10:59:45;2.85;;;1.95;;
67363;SDS011;54250;45.572;38.086;2023-04-24T11:02:14;4.13;;;2.15;;
67363;SDS011;54250;45.572;38.086;2023-04-24T11:04:43;5.50;;;2.42;;
67363;SDS011;54250;45.572;38.086;2023-04-24T11:07:10;3.53;;;2.10;;
67363;SDS011;54250;45.572;38.086;2023-04-24T11:09:37;4.57;;;2.30;;
67363;SDS011;54250;45.572;38.086;2023-04-24T11:12:07;3.88;;;2.42;;
67363;SDS011;54250;45.572;38.086;2023-04-24T11:17:33;21.80;;;2.85;;
67363;SDS011;54250;45.572;38.086;2023-04-24T11:20:08;11.80;;;2.83;;
67363;SDS011;54250;45.572;38.086;2023-04-24T11:22:37;8.65;;;1.95;;
67363;SDS011;54250;45.572;38.086;2023-04-24T11:25:08;2.58;;;1.70;;
67363;SDS011;54250;45.572;38.086;2023-04-24T11:27:41;6.00;;;2.20;;
67363;SDS011;54250;45.572;38.086;2023-04-24T11:30:08;6.28;;;2.53;;
67363;SDS011;54250;45.572;38.086;2023-04-24T11:32:40;5.10;;;2.20;;
67363;SDS011;54250;45.572;38.086;2023-04-24T11:37:39;5.72;;;2.75;;
67363;SDS011;54250;45.572;38.086;2023-04-24T11:40:08;2.80;;;1.92;;
67363;SDS011;54250;45.572;38.086;2023-04-24T11:42:37;9.85;;;2.40;;
67363;SDS011;54250;45.572;38.086;2023-04-24T11:45:08;5.50;;;2.45;;
67363;SDS011;54250;45.572;38.086;2023-04-24T11:47:47;4.82;;;2.08;;
67363;SDS011;54250;45.572;38.086;2023-04-24T11:50:14;3.35;;;2.17;;
67363;SDS011;54250;45.572;38.086;2023-04-24T11:52:42;5.18;;;2.25;;
67363;SDS011;54250;45.572;38.086;2023-04-24T11:57:48;8.70;;;3.33;;
67363;SDS011;54250;45.572;38.086;2023-04-24T12:02:46;6.75;;;2.20;;
67363;SDS011;54250;45.572;38.086;2023-04-24T12:05:22;7.28;;;2.17;;
67363;SDS011;54250;45.572;38.086;2023-04-24T12:07:51;8.20;;;3.03;;
67363;SDS011;54250;45.572;38.086;2023-04-24T12:10:21;10.43;;;2.25;;
67363;SDS011;54250;45.572;38.086;2023-04-24T12:15:18;4.68;;;1.73;;
67363;SDS011;54250;45.572;38.086;2023-04-24T12:17:46;5.25;;;2.42;;
67363;SDS011;54250;45.572;38.086;2023-04-24T12:20:12;11.13;;;1.98;;
67363;SDS011;54250;45.572;38.086;2023-04-24T12:22:47;3.78;;;2.05;;
67363;SDS011;54250;45.572;38.086;2023-04-24T12:25:19;16.17;;;1.88;;
67363;SDS011;54250;45.572;38.086;2023-04-24T12:27:46;5.20;;;1.67;;
67363;SDS011;54250;45.572;38.086;2023-04-24T12:30:18;5.68;;;1.40;;
67363;SDS011;54250;45.572;38.086;2023-04-24T12:32:48;3.50;;;2.08;;
67363;SDS011;54250;45.572;38.086;2023-04-24T12:35:19;5.82;;;2.50;;
67363;SDS011;54250;45.572;38.086;2023-04-24T12:37:47;5.20;;;2.60;;
67363;SDS011;54250;45.572;38.086;2023-04-24T12:40:13;8.25;;;3.22;;
67363;SDS011;54250;45.572;38.086;2023-04-24T12:42:46;8.90;;;4.15;;
67363;SDS011;54250;45.572;38.086;2023-04-24T12:45:14;4.65;;;2.97;;
67363;SDS011;54250;45.572;38.086;2023-04-24T12:47:42;6.22;;;3.42;;
67363;SDS011;54250;45.572;38.086;2023-04-24T12:50:09;9.27;;;4.70;;
67363;SDS011;54250;45.572;38.086;2023-04-24T12:52:36;9.75;;;4.65;;
67363;SDS011;54250;45.572;38.086;2023-04-24T12:55:03;10.55;;;4.50;;
67363;SDS011;54250;45.572;38.086;2023-04-24T12:57:30;8.27;;;4.30;;
67363;SDS011;54250;45.572;38.086;2023-04-24T12:59:57;11.93;;;4.60;;
67363;SDS011;54250;45.572;38.086;2023-04-24T13:02:24;12.05;;;5.47;;
67363;SDS011;54250;45.572;38.086;2023-04-24T13:04:52;10.82;;;5.72;;
67363;SDS011;54250;45.572;38.086;2023-04-24T13:07:19;11.90;;;4.93;;
67363;SDS011;54250;45.572;38.086;2023-04-24T13:09:48;11.02;;;5.05;;
67363;SDS011;54250;45.572;38.086;2023-04-24T13:12:15;6.90;;;3.30;;
67363;SDS011;54250;45.572;38.086;2023-04-24T13:14:41;10.18;;;3.97;;
67363;SDS011;54250;45.572;38.086;2023-04-24T13:17:07;8.02;;;4.03;;
67363;SDS011;54250;45.572;38.086;2023-04-24T13:19:38;8.98;;;4.60;;
67363;SDS011;54250;45.572;38.086;2023-04-24T13:22:05;10.38;;;4.35;;
67363;SDS011;54250;45.572;38.086;2023-04-24T13:24:32;6.93;;;3.90;;
67363;SDS011;54250;45.572;38.086;2023-04-24T13:26:59;16.35;;;4.68;;
67363;SDS011;54250;45.572;38.086;2023-04-24T13:29:26;11.75;;;4.32;;
67363;SDS011;54250;45.572;38.086;2023-04-24T13:31:53;8.50;;;3.67;;
67363;SDS011;54250;45.572;38.086;2023-04-24T13:34:20;6.40;;;3.88;;
67363;SDS011;54250;45.572;38.086;2023-04-24T13:36:47;9.73;;;3.80;;
67363;SDS011;54250;45.572;38.086;2023-04-24T13:39:14;8.18;;;4.53;;
67363;SDS011;54250;45.572;38.086;2023-04-24T13:41:42;8.48;;;4.85;;
67363;SDS011;54250;45.572;38.086;2023-04-24T13:44:08;13.27;;;5.35;;
67363;SDS011;54250;45.572;38.086;2023-04-24T13:46:34;8.90;;;4.10;;
67363;SDS011;54250;45.572;38.086;2023-04-24T13:49:01;7.38;;;4.55;;
67363;SDS011;54250;45.572;38.086;2023-04-24T13:51:28;8.73;;;4.40;;
67363;SDS011;54250;45.572;38.086;2023-04-24T13:53:55;14.02;;;4.68;;
67363;SDS011;54250;45.572;38.086;2023-04-24T13:56:21;11.63;;;4.55;;
67363;SDS011;54250;45.572;38.086;2023-04-24T13:58:48;11.75;;;4.45;;
67363;SDS011;54250;45.572;38.086;2023-04-24T14:01:14;13.45;;;4.93;;
67363;SDS011;54250;45.572;38.086;2023-04-24T14:03:41;5.88;;;3.90;;
67363;SDS011;54250;45.572;38.086;2023-04-24T14:06:09;8.45;;;3.95;;
67363;SDS011;54250;45.572;38.086;2023-04-24T14:08:35;10.10;;;4.20;;
67363;SDS011;54250;45.572;38.086;2023-04-24T14:11:01;8.73;;;4.20;;
67363;SDS011;54250;45.572;38.086;2023-04-24T14:13:28;9.98;;;4.35;;
67363;SDS011;54250;45.572;38.086;2023-04-24T14:15:54;7.70;;;4.45;;
67363;SDS011;54250;45.572;38.086;2023-04-24T14:18:20;12.25;;;4.53;;
67363;SDS011;54250;45.572;38.086;2023-04-24T14:20:46;8.35;;;4.07;;
67363;SDS011;54250;45.572;38.086;2023-04-24T14:23:12;10.65;;;4.65;;
67363;SDS011;54250;45.572;38.086;2023-04-24T14:25:38;8.82;;;4.50;;
67363;SDS011;54250;45.572;38.086;2023-04-24T14:28:05;10.38;;;4.72;;
67363;SDS011;54250;45.572;38.086;2023-04-24T14:30:32;8.48;;;4.20;;
67363;SDS011;54250;45.572;38.086;2023-04-24T14:32:58;7.88;;;3.65;;
67363;SDS011;54250;45.572;38.086;2023-04-24T14:35:24;8.77;;;4.60;;
67363;SDS011;54250;45.572;38.086;2023-04-24T14:37:51;12.13;;;4.88;;
67363;SDS011;54250;45.572;38.086;2023-04-24T14:40:17;9.75;;;3.97;;
67363;SDS011;54250;45.572;38.086;2023-04-24T14:42:43;13.52;;;5.00;;
67363;SDS011;54250;45.572;38.086;2023-04-24T14:45:09;10.43;;;5.18;;
67363;SDS011;54250;45.572;38.086;2023-04-24T14:47:36;6.85;;;4.18;;
67363;SDS011;54250;45.572;38.086;2023-04-24T14:50:02;9.40;;;4.38;;
67363;SDS011;54250;45.572;38.086;2023-04-24T14:52:29;6.65;;;3.70;;
67363;SDS011;54250;45.572;38.086;2023-04-24T14:54:55;11.20;;;4.45;;
67363;SDS011;54250;45.572;38.086;2023-04-24T14:57:21;8.45;;;4.00;;
67363;SDS011;54250;45.572;38.086;2023-04-24T14:59:48;10.27;;;4.43;;
67363;SDS011;54250;45.572;38.086;2023-04-24T15:02:14;8.55;;;4.03;;